createdAt,value
2019-01-04T00:03:28.201Z,-0.23
2019-01-04T00:07:35.059Z,-0.09
2019-01-04T00:17:23.389Z,-0.69
2019-01-04T00:21:30.586Z,-0.80
2019-01-04T00:25:38.518Z,-0.48
2019-01-04T00:29:45.382Z,-0.39
2019-01-04T00:33:52.295Z,-0.41
2019-01-04T00:37:59.377Z,-0.33
2019-01-04T00:42:06.233Z,-0.17
2019-01-04T00:46:15.174Z,-0.02
2019-01-04T00:50:22.091Z,-0.15
2019-01-04T00:54:29.086Z,-0.01
2019-01-04T00:59:38.032Z,0.08
2019-01-04T01:04:45.533Z,-0.12
2019-01-04T01:09:38.211Z,-0.14
2019-01-04T01:14:43.247Z,-0.28
2019-01-04T01:19:46.042Z,-0.63
2019-01-04T01:25:26.771Z,-0.54
2019-01-04T01:30:26.422Z,-0.45
2019-01-04T01:35:27.716Z,-0.43
2019-01-04T01:40:29.697Z,-0.48
2019-01-04T01:46:12.840Z,-0.60
2019-01-04T01:51:21.475Z,-0.84
2019-01-04T01:55:28.407Z,-0.65
2019-01-04T01:59:35.696Z,-0.48
2019-01-04T02:03:42.573Z,-0.43
2019-01-04T02:07:49.615Z,-0.51
2019-01-04T02:11:57.095Z,-0.32
2019-01-04T02:16:04.404Z,-0.52
2019-01-04T02:20:11.509Z,-0.63
2019-01-04T02:24:18.392Z,-0.67
2019-01-04T02:28:25.432Z,-0.49
2019-01-04T02:32:32.440Z,-0.43
2019-01-04T02:36:39.645Z,-0.30
2019-01-04T02:40:46.924Z,-0.19
2019-01-04T02:44:53.756Z,-0.16
2019-01-04T02:49:00.633Z,0.02
2019-01-04T02:53:10.351Z,0.16
2019-01-04T02:57:17.238Z,0.25
2019-01-04T03:01:26.224Z,0.28
2019-01-04T03:05:33.280Z,0.30
2019-01-04T03:09:40.287Z,0.29
2019-01-04T03:13:47.148Z,0.53
2019-01-04T03:17:54.083Z,0.02
2019-01-04T03:22:02.077Z,0.06
2019-01-04T03:26:09.086Z,-0.06
2019-01-04T03:30:16.531Z,-0.12
2019-01-04T03:34:23.420Z,0.02
2019-01-04T03:38:30.361Z,-0.12
2019-01-04T03:42:39.823Z,-0.16
2019-01-04T03:46:46.885Z,0.03
2019-01-04T03:50:53.874Z,0.11
2019-01-04T03:55:01.155Z,0.12
2019-01-04T03:59:08.183Z,-0.01
2019-01-04T04:03:17.684Z,-0.17
2019-01-04T04:07:24.618Z,-0.05
2019-01-04T04:11:31.496Z,-0.12
2019-01-04T04:15:38.501Z,-0.30
2019-01-04T04:19:48.317Z,-0.30
2019-01-04T04:23:55.197Z,-0.24
2019-01-04T04:28:02.089Z,-0.31
2019-01-04T04:32:09.311Z,-0.26
2019-01-04T04:36:17.204Z,-0.25
2019-01-04T04:40:24.209Z,-0.09
2019-01-04T04:44:31.251Z,-0.14
2019-01-04T04:48:40.020Z,-0.05
2019-01-04T04:52:47.119Z,-0.01
2019-01-04T04:56:54.566Z,-0.09
2019-01-04T05:01:01.455Z,-0.02
2019-01-04T05:05:08.478Z,0.05
2019-01-04T05:09:15.396Z,0.07
2019-01-04T05:13:22.285Z,0.00
2019-01-04T05:17:30.269Z,0.13
2019-01-04T05:21:37.545Z,-0.15
2019-01-04T05:25:44.477Z,-0.08
2019-01-04T05:29:51.336Z,-0.12
2019-01-04T05:33:58.162Z,-0.41
2019-01-04T05:38:05.200Z,-0.39
2019-01-04T05:42:12.251Z,-0.36
2019-01-04T05:46:19.133Z,-0.38
2019-01-04T05:50:26.201Z,-0.53
2019-01-04T05:54:33.283Z,-0.39
2019-01-04T05:58:40.277Z,-0.40
2019-01-04T06:02:47.276Z,-0.23
2019-01-04T06:06:54.261Z,-0.40
2019-01-04T06:11:01.247Z,-0.31
2019-01-04T06:15:08.264Z,-0.35
2019-01-04T06:19:15.136Z,-0.50
2019-01-04T06:23:24.734Z,-0.62
2019-01-04T06:27:31.797Z,-0.70
2019-01-04T06:31:39.387Z,-0.67
2019-01-04T06:35:46.365Z,-0.68
2019-01-04T06:39:53.404Z,-0.62
2019-01-04T06:44:00.496Z,-0.82
2019-01-04T06:48:07.590Z,-0.49
2019-01-04T06:52:14.639Z,-0.73
2019-01-04T06:56:21.566Z,-0.72
2019-01-04T07:00:28.649Z,-0.94
2019-01-04T07:04:36.394Z,-0.77
2019-01-04T07:08:43.416Z,-0.85
2019-01-04T07:12:50.419Z,-0.75
2019-01-04T07:17:00.362Z,-0.86
2019-01-04T07:21:07.563Z,-0.86
2019-01-04T07:25:14.591Z,-0.62
2019-01-04T07:29:21.471Z,-0.69
2019-01-04T07:33:28.497Z,-0.73
2019-01-04T07:37:35.353Z,-0.64
2019-01-04T07:41:43.306Z,-0.57
2019-01-04T07:45:50.398Z,-0.52
2019-01-04T07:49:57.403Z,-0.66
2019-01-04T07:54:07.343Z,0.90
2019-01-04T07:58:14.406Z,0.42
2019-01-04T08:02:41.432Z,0.76
2019-01-04T08:06:48.353Z,0.39
2019-01-04T08:10:55.355Z,-0.16
2019-01-04T08:15:03.573Z,-0.28
2019-01-04T08:19:11.674Z,-0.15
2019-01-04T08:23:18.755Z,-0.30
2019-01-04T08:27:25.883Z,-0.14
2019-01-04T08:31:32.865Z,-0.04
2019-01-04T08:35:39.932Z,-0.12
2019-01-04T08:39:47.784Z,-0.33
2019-01-04T08:43:56.733Z,-0.23
2019-01-04T08:48:05.747Z,-0.20
2019-01-04T08:52:12.667Z,-0.10
2019-01-04T08:56:19.709Z,0.11
2019-01-04T09:00:26.931Z,-0.12
2019-01-04T09:04:35.747Z,0.09
2019-01-04T09:08:42.676Z,0.35
2019-01-04T09:12:49.630Z,0.54
2019-01-04T09:16:58.023Z,0.65
2019-01-04T09:21:04.940Z,1.00
2019-01-04T09:25:14.708Z,0.91
2019-01-04T09:29:21.692Z,1.26
2019-01-04T09:33:30.129Z,1.60
2019-01-04T09:37:37.201Z,1.89
2019-01-04T09:42:02.264Z,1.68
2019-01-04T09:46:09.169Z,1.80
2019-01-04T09:50:16.738Z,2.05
2019-01-04T09:54:23.821Z,2.27
2019-01-04T09:58:31.218Z,2.37
2019-01-04T10:02:38.162Z,2.62
2019-01-04T10:06:45.191Z,3.00
2019-01-04T10:10:52.281Z,3.25
2019-01-04T10:14:59.616Z,3.13
2019-01-04T10:19:07.349Z,3.10
2019-01-04T10:23:14.310Z,3.80
2019-01-04T10:27:22.604Z,4.10
2019-01-04T10:31:29.595Z,3.86
2019-01-04T10:35:38.017Z,4.26
2019-01-04T10:39:44.820Z,4.66
2019-01-04T10:43:51.738Z,4.81
2019-01-04T10:47:58.736Z,5.36
2019-01-04T10:52:05.760Z,4.91
2019-01-04T10:56:12.683Z,5.22
2019-01-04T11:00:19.612Z,5.48
2019-01-04T11:04:26.490Z,5.41
2019-01-04T11:08:33.483Z,5.52
2019-01-04T11:12:40.507Z,5.55
2019-01-04T11:16:47.534Z,5.39
2019-01-04T11:20:55.266Z,5.73
2019-01-04T11:25:53.734Z,5.44
2019-01-04T11:30:33.937Z,5.37
2019-01-04T11:35:48.785Z,5.09
2019-01-04T11:40:55.826Z,5.22
2019-01-04T11:45:23.941Z,5.24
2019-01-04T11:50:21.702Z,5.63
2019-01-04T11:54:33.202Z,5.38
2019-01-04T11:58:40.455Z,5.55
2019-01-04T12:02:47.545Z,5.45
2019-01-04T12:06:54.794Z,5.44
2019-01-04T12:11:01.672Z,5.53
2019-01-04T12:15:09.070Z,5.48
2019-01-04T12:19:16.063Z,5.03
2019-01-04T12:23:23.091Z,5.22
2019-01-04T12:27:30.125Z,5.12
2019-01-04T12:31:37.140Z,5.01
2019-01-04T12:35:46.560Z,5.16
2019-01-04T12:39:53.457Z,4.96
2019-01-04T12:44:01.473Z,4.97
2019-01-04T12:48:10.126Z,4.94
2019-01-04T12:52:17.062Z,4.87
2019-01-04T12:56:25.588Z,4.86
2019-01-04T13:00:32.577Z,4.87
2019-01-04T13:04:39.606Z,4.84
2019-01-04T13:08:46.657Z,4.87
2019-01-04T13:12:53.586Z,4.79
2019-01-04T13:17:01.676Z,4.69
2019-01-04T13:21:09.086Z,4.74
2019-01-04T13:25:16.022Z,4.74
2019-01-04T13:29:25.216Z,4.79
2019-01-04T13:33:32.188Z,4.64
2019-01-04T13:37:39.070Z,4.76
2019-01-04T13:41:46.014Z,4.67
2019-01-04T13:45:55.593Z,4.70
2019-01-04T13:50:02.531Z,4.59
2019-01-04T13:54:09.368Z,4.61
2019-01-04T13:58:16.236Z,4.69
2019-01-04T14:02:23.078Z,4.60
2019-01-04T14:06:30.058Z,4.71
2019-01-04T14:10:37.127Z,4.47
2019-01-04T14:14:44.098Z,4.58
2019-01-04T14:18:52.341Z,4.59
2019-01-04T14:22:59.352Z,4.68
2019-01-04T14:27:07.671Z,4.65
2019-01-04T14:31:16.180Z,4.62
2019-01-04T14:35:23.211Z,4.59
2019-01-04T14:39:31.446Z,4.56
2019-01-04T14:43:39.371Z,4.52
2019-01-04T14:47:46.479Z,4.56
2019-01-04T14:51:53.377Z,4.51
2019-01-04T14:56:00.406Z,4.43
2019-01-04T15:00:10.843Z,4.55
2019-01-04T15:04:18.383Z,4.50
2019-01-04T15:08:25.564Z,4.61
2019-01-04T15:12:32.725Z,4.45
2019-01-04T15:16:39.658Z,4.43
2019-01-04T15:20:46.526Z,4.48
2019-01-04T15:24:56.956Z,4.54
2019-01-04T15:29:03.845Z,4.53
2019-01-04T15:33:10.871Z,4.49
2019-01-04T15:37:17.970Z,4.44
2019-01-04T15:41:24.865Z,4.54
2019-01-04T15:45:32.429Z,4.44
2019-01-04T15:49:40.287Z,4.43
2019-01-04T15:53:47.190Z,4.46
2019-01-04T15:57:54.064Z,4.51
2019-01-04T16:02:01.096Z,4.59
2019-01-04T16:06:12.590Z,4.57
2019-01-04T16:10:16.958Z,4.65
2019-01-04T16:14:23.919Z,4.64
2019-01-04T16:18:30.797Z,4.65
2019-01-04T16:22:38.780Z,4.64
2019-01-04T16:26:45.766Z,4.59
2019-01-04T16:30:53.103Z,4.48
2019-01-04T16:35:03.146Z,4.56
2019-01-04T16:39:15.122Z,4.45
2019-01-04T16:43:22.227Z,4.40
2019-01-04T16:47:29.771Z,4.39
2019-01-04T16:51:36.718Z,4.35
2019-01-04T16:55:45.456Z,4.33
2019-01-04T16:59:52.705Z,4.21
2019-01-04T17:03:59.661Z,4.25
2019-01-04T17:08:06.743Z,4.25
2019-01-04T17:12:13.808Z,4.25
2019-01-04T17:16:20.867Z,4.25
2019-01-04T17:20:28.424Z,4.24
2019-01-04T17:24:35.247Z,4.27
2019-01-04T17:28:42.119Z,4.23
2019-01-04T17:32:49.041Z,4.27
2019-01-04T17:36:55.973Z,4.40
2019-01-04T17:41:04.162Z,4.14
2019-01-04T17:45:11.202Z,4.40
2019-01-04T17:49:20.655Z,4.40
2019-01-04T17:53:27.732Z,4.36
2019-01-04T17:57:34.938Z,4.42
2019-01-04T18:01:41.948Z,4.37
2019-01-04T18:05:49.061Z,4.26
2019-01-04T18:09:56.174Z,4.39
2019-01-04T18:14:03.039Z,4.26
2019-01-04T18:18:10.149Z,4.40
2019-01-04T18:22:17.272Z,4.31
2019-01-04T18:26:26.676Z,4.37
2019-01-04T18:30:35.071Z,4.36
2019-01-04T18:34:43.321Z,4.37
2019-01-04T18:38:50.984Z,4.27
2019-01-04T18:42:59.834Z,4.32
2019-01-04T18:47:08.221Z,4.36
2019-01-04T18:51:15.346Z,4.31
2019-01-04T18:55:23.719Z,4.32
2019-01-04T18:59:30.958Z,4.32
2019-01-04T19:03:38.057Z,4.57
2019-01-04T19:07:45.477Z,4.48
2019-01-04T19:11:52.751Z,4.50
2019-01-04T19:16:00.181Z,4.63
2019-01-04T19:20:08.011Z,4.59
2019-01-04T19:24:15.460Z,4.61
2019-01-04T19:28:22.756Z,4.80
2019-01-04T19:32:30.140Z,4.69
2019-01-04T19:36:38.287Z,4.70
2019-01-04T19:40:46.986Z,4.86
2019-01-04T19:44:55.372Z,5.06
2019-01-04T19:49:02.779Z,4.69
2019-01-04T19:53:12.971Z,4.58
2019-01-04T19:57:29.290Z,4.61
2019-01-04T20:01:36.802Z,4.51
2019-01-04T20:06:41.778Z,4.48
2019-01-04T20:12:26.476Z,4.44
2019-01-04T20:17:00.521Z,4.40
2019-01-04T20:21:38.968Z,4.36
2019-01-04T20:26:05.551Z,4.44
2019-01-04T20:30:31.497Z,4.34
2019-01-04T20:34:59.433Z,4.33
2019-01-04T20:39:22.743Z,4.35
2019-01-04T20:44:07.038Z,4.35
2019-01-04T20:48:37.198Z,4.26
2019-01-04T20:52:54.839Z,4.36
2019-01-04T20:57:19.901Z,4.30
2019-01-04T21:01:48.727Z,4.34
2019-01-04T21:06:17.863Z,4.39
2019-01-04T21:10:43.801Z,4.31
2019-01-04T21:15:12.949Z,4.37
2019-01-04T21:19:51.132Z,4.39
2019-01-04T21:24:18.759Z,4.42
2019-01-04T21:28:43.420Z,4.35
2019-01-04T21:33:24.607Z,4.31
2019-01-04T21:37:55.177Z,4.38
2019-01-04T21:42:24.190Z,4.37
2019-01-04T21:46:56.851Z,4.32
2019-01-04T21:51:20.600Z,4.24
2019-01-04T21:55:46.515Z,4.26
2019-01-04T22:00:21.216Z,4.24
2019-01-04T22:04:45.791Z,4.22
2019-01-04T22:09:23.478Z,4.28
2019-01-04T22:13:48.115Z,4.35
2019-01-04T22:18:30.270Z,4.28
2019-01-04T22:23:08.434Z,4.31
2019-01-04T22:27:43.402Z,4.23
2019-01-04T22:32:19.887Z,4.29
2019-01-04T22:36:44.296Z,4.20
2019-01-04T22:41:19.563Z,4.26
2019-01-04T22:45:52.564Z,4.35
2019-01-04T22:50:27.522Z,4.26
2019-01-04T22:54:55.510Z,4.26
2019-01-04T22:59:19.918Z,4.28
2019-01-04T23:03:44.983Z,4.21
2019-01-04T23:08:10.004Z,4.29
2019-01-04T23:12:38.030Z,4.29
2019-01-04T23:17:03.963Z,4.26
2019-01-04T23:22:15.405Z,4.22
2019-01-04T23:26:47.403Z,4.29
2019-01-04T23:31:13.353Z,4.30
2019-01-04T23:35:38.654Z,4.35
2019-01-04T23:40:03.383Z,4.29
2019-01-04T23:44:34.288Z,4.43
2019-01-04T23:49:12.277Z,4.39
2019-01-04T23:53:36.851Z,4.40
2019-01-04T23:58:21.755Z,4.44
